sensor_id;sensor_type;location;lat;lon;timestamp;temperature;humidity
13992;DHT22;7070;53.586;9.692;2023-05-20T00:01:05;10.90;60.60
13992;DHT22;7070;53.586;9.692;2023-05-20T00:03:32;10.80;60.50
13992;DHT22;7070;53.586;9.692;2023-05-20T00:05:59;10.80;60.40
13992;DHT22;7070;53.586;9.692;2023-05-20T00:08:26;10.80;60.50
13992;DHT22;7070;53.586;9.692;2023-05-20T00:10:52;10.70;60.50
13992;DHT22;7070;53.586;9.692;2023-05-20T00:13:21;10.80;60.60
13992;DHT22;7070;53.586;9.692;2023-05-20T00:15:48;10.70;60.60
13992;DHT22;7070;53.586;9.692;2023-05-20T00:18:15;10.70;60.60
13992;DHT22;7070;53.586;9.692;2023-05-20T00:20:42;10.70;60.70
13992;DHT22;7070;53.586;9.692;2023-05-20T00:23:09;10.70;60.80
13992;DHT22;7070;53.586;9.692;2023-05-20T00:25:36;10.60;60.90
13992;DHT22;7070;53.586;9.692;2023-05-20T00:28:03;10.60;60.90
13992;DHT22;7070;53.586;9.692;2023-05-20T00:30:31;10.60;60.90
13992;DHT22;7070;53.586;9.692;2023-05-20T00:32:58;10.50;60.90
13992;DHT22;7070;53.586;9.692;2023-05-20T00:35:25;10.50;60.80
13992;DHT22;7070;53.586;9.692;2023-05-20T00:37:52;10.50;61.10
13992;DHT22;7070;53.586;9.692;2023-05-20T00:40:19;10.50;61.20
13992;DHT22;7070;53.586;9.692;2023-05-20T00:42:46;10.40;61.10
13992;DHT22;7070;53.586;9.692;2023-05-20T00:45:13;10.40;61.20
13992;DHT22;7070;53.586;9.692;2023-05-20T00:47:42;10.40;61.20
13992;DHT22;7070;53.586;9.692;2023-05-20T00:50:09;10.40;61.30
13992;DHT22;7070;53.586;9.692;2023-05-20T00:52:36;10.40;61.30
13992;DHT22;7070;53.586;9.692;2023-05-20T00:55:03;10.40;61.40
13992;DHT22;7070;53.586;9.692;2023-05-20T00:57:30;10.30;61.70
13992;DHT22;7070;53.586;9.692;2023-05-20T00:59:57;10.30;61.70
13992;DHT22;7070;53.586;9.692;2023-05-20T01:02:24;10.30;61.50
13992;DHT22;7070;53.586;9.692;2023-05-20T01:04:53;10.30;61.60
13992;DHT22;7070;53.586;9.692;2023-05-20T01:07:21;10.30;61.50
13992;DHT22;7070;53.586;9.692;2023-05-20T01:09:48;10.40;61.60
13992;DHT22;7070;53.586;9.692;2023-05-20T01:12:21;10.40;61.70
13992;DHT22;7070;53.586;9.692;2023-05-20T01:14:55;10.40;61.60
13992;DHT22;7070;53.586;9.692;2023-05-20T01:17:26;10.40;61.60
13992;DHT22;7070;53.586;9.692;2023-05-20T01:19:58;10.40;61.60
13992;DHT22;7070;53.586;9.692;2023-05-20T01:22:26;10.40;61.60
13992;DHT22;7070;53.586;9.692;2023-05-20T01:24:53;10.40;61.50
13992;DHT22;7070;53.586;9.692;2023-05-20T01:27:22;10.40;61.40
13992;DHT22;7070;53.586;9.692;2023-05-20T01:29:50;10.40;61.40
13992;DHT22;7070;53.586;9.692;2023-05-20T01:32:21;10.40;61.30
13992;DHT22;7070;53.586;9.692;2023-05-20T01:34:49;10.40;61.30
13992;DHT22;7070;53.586;9.692;2023-05-20T01:37:19;10.30;61.30
13992;DHT22;7070;53.586;9.692;2023-05-20T01:39:49;10.50;61.50
13992;DHT22;7070;53.586;9.692;2023-05-20T01:42:16;10.40;61.40
13992;DHT22;7070;53.586;9.692;2023-05-20T01:44:45;10.40;61.40
13992;DHT22;7070;53.586;9.692;2023-05-20T01:47:12;10.40;61.60
13992;DHT22;7070;53.586;9.692;2023-05-20T01:49:39;10.40;61.60
13992;DHT22;7070;53.586;9.692;2023-05-20T01:52:06;10.40;61.70
13992;DHT22;7070;53.586;9.692;2023-05-20T01:54:32;10.40;61.70
13992;DHT22;7070;53.586;9.692;2023-05-20T01:57:01;10.20;61.70
13992;DHT22;7070;53.586;9.692;2023-05-20T01:59:28;10.20;61.70
13992;DHT22;7070;53.586;9.692;2023-05-20T02:01:54;10.20;62.00
13992;DHT22;7070;53.586;9.692;2023-05-20T02:04:21;10.20;62.00
13992;DHT22;7070;53.586;9.692;2023-05-20T02:06:48;10.20;62.20
13992;DHT22;7070;53.586;9.692;2023-05-20T02:09:15;10.10;62.20
13992;DHT22;7070;53.586;9.692;2023-05-20T02:11:43;10.20;62.50
13992;DHT22;7070;53.586;9.692;2023-05-20T02:14:11;10.10;62.60
13992;DHT22;7070;53.586;9.692;2023-05-20T02:16:38;10.00;62.70
13992;DHT22;7070;53.586;9.692;2023-05-20T02:19:05;10.00;62.90
13992;DHT22;7070;53.586;9.692;2023-05-20T02:21:37;10.00;63.10
13992;DHT22;7070;53.586;9.692;2023-05-20T02:24:05;10.00;63.40
13992;DHT22;7070;53.586;9.692;2023-05-20T02:26:31;9.90;64.70
13992;DHT22;7070;53.586;9.692;2023-05-20T02:28:58;9.90;65.00
13992;DHT22;7070;53.586;9.692;2023-05-20T02:31:27;9.80;65.10
13992;DHT22;7070;53.586;9.692;2023-05-20T02:33:53;9.80;65.30
13992;DHT22;7070;53.586;9.692;2023-05-20T02:36:20;9.80;65.50
13992;DHT22;7070;53.586;9.692;2023-05-20T02:38:47;9.80;65.80
13992;DHT22;7070;53.586;9.692;2023-05-20T02:41:14;9.80;66.00
13992;DHT22;7070;53.586;9.692;2023-05-20T02:43:41;9.80;66.20
13992;DHT22;7070;53.586;9.692;2023-05-20T02:46:09;9.80;66.40
13992;DHT22;7070;53.586;9.692;2023-05-20T02:48:37;9.80;66.60
13992;DHT22;7070;53.586;9.692;2023-05-20T02:51:04;9.80;66.60
13992;DHT22;7070;53.586;9.692;2023-05-20T02:53:31;9.80;66.90
13992;DHT22;7070;53.586;9.692;2023-05-20T02:55:58;9.70;67.00
13992;DHT22;7070;53.586;9.692;2023-05-20T02:58:26;9.80;67.20
13992;DHT22;7070;53.586;9.692;2023-05-20T03:00:53;9.70;67.20
13992;DHT22;7070;53.586;9.692;2023-05-20T03:03:25;9.80;67.50
13992;DHT22;7070;53.586;9.692;2023-05-20T03:05:54;9.80;67.80
13992;DHT22;7070;53.586;9.692;2023-05-20T03:08:21;9.80;67.90
13992;DHT22;7070;53.586;9.692;2023-05-20T03:10:48;9.80;68.10
13992;DHT22;7070;53.586;9.692;2023-05-20T03:13:15;9.80;68.30
13992;DHT22;7070;53.586;9.692;2023-05-20T03:15:43;9.80;68.40
13992;DHT22;7070;53.586;9.692;2023-05-20T03:18:10;9.80;68.50
13992;DHT22;7070;53.586;9.692;2023-05-20T03:20:38;9.80;68.80
13992;DHT22;7070;53.586;9.692;2023-05-20T03:23:07;9.80;68.90
13992;DHT22;7070;53.586;9.692;2023-05-20T03:25:35;9.80;69.00
13992;DHT22;7070;53.586;9.692;2023-05-20T03:28:02;9.80;69.10
13992;DHT22;7070;53.586;9.692;2023-05-20T03:30:29;9.70;69.20
13992;DHT22;7070;53.586;9.692;2023-05-20T03:32:57;9.80;69.40
13992;DHT22;7070;53.586;9.692;2023-05-20T03:35:24;9.80;69.60
13992;DHT22;7070;53.586;9.692;2023-05-20T03:37:51;9.80;70.50
13992;DHT22;7070;53.586;9.692;2023-05-20T03:40:19;9.80;69.80
13992;DHT22;7070;53.586;9.692;2023-05-20T03:42:46;9.80;70.00
13992;DHT22;7070;53.586;9.692;2023-05-20T03:45:14;9.80;70.10
13992;DHT22;7070;53.586;9.692;2023-05-20T03:47:41;9.80;70.20
13992;DHT22;7070;53.586;9.692;2023-05-20T03:50:08;9.90;70.30
13992;DHT22;7070;53.586;9.692;2023-05-20T03:52:36;9.90;70.50
13992;DHT22;7070;53.586;9.692;2023-05-20T03:55:03;9.90;70.50
13992;DHT22;7070;53.586;9.692;2023-05-20T03:57:31;9.80;70.50
13992;DHT22;7070;53.586;9.692;2023-05-20T03:59:58;9.90;70.70
13992;DHT22;7070;53.586;9.692;2023-05-20T04:02:26;9.90;70.80
13992;DHT22;7070;53.586;9.692;2023-05-20T04:04:53;9.90;70.90
13992;DHT22;7070;53.586;9.692;2023-05-20T04:07:22;10.00;70.00
13992;DHT22;7070;53.586;9.692;2023-05-20T04:09:49;9.90;71.10
13992;DHT22;7070;53.586;9.692;2023-05-20T04:12:16;9.90;71.20
13992;DHT22;7070;53.586;9.692;2023-05-20T04:14:46;10.00;70.30
13992;DHT22;7070;53.586;9.692;2023-05-20T04:17:14;10.00;70.40
13992;DHT22;7070;53.586;9.692;2023-05-20T04:19:41;10.10;70.50
13992;DHT22;7070;53.586;9.692;2023-05-20T04:22:09;10.20;70.70
13992;DHT22;7070;53.586;9.692;2023-05-20T04:24:36;10.20;70.80
13992;DHT22;7070;53.586;9.692;2023-05-20T04:27:03;10.30;70.90
13992;DHT22;7070;53.586;9.692;2023-05-20T04:29:30;10.30;71.00
13992;DHT22;7070;53.586;9.692;2023-05-20T04:32:00;10.40;71.10
13992;DHT22;7070;53.586;9.692;2023-05-20T04:34:28;10.50;71.20
13992;DHT22;7070;53.586;9.692;2023-05-20T04:36:59;10.60;71.40
13992;DHT22;7070;53.586;9.692;2023-05-20T04:39:26;10.70;71.60
13992;DHT22;7070;53.586;9.692;2023-05-20T04:41:53;10.80;71.70
13992;DHT22;7070;53.586;9.692;2023-05-20T04:44:20;10.90;71.90
13992;DHT22;7070;53.586;9.692;2023-05-20T04:46:49;11.10;72.00
13992;DHT22;7070;53.586;9.692;2023-05-20T04:49:17;11.30;72.00
13992;DHT22;7070;53.586;9.692;2023-05-20T04:51:44;11.40;71.80
13992;DHT22;7070;53.586;9.692;2023-05-20T04:54:12;11.60;71.90
13992;DHT22;7070;53.586;9.692;2023-05-20T04:56:38;11.70;71.70
13992;DHT22;7070;53.586;9.692;2023-05-20T04:59:05;11.90;71.70
13992;DHT22;7070;53.586;9.692;2023-05-20T05:01:34;12.00;71.50
13992;DHT22;7070;53.586;9.692;2023-05-20T05:04:01;12.10;71.20
13992;DHT22;7070;53.586;9.692;2023-05-20T05:06:29;12.20;71.00
13992;DHT22;7070;53.586;9.692;2023-05-20T05:08:56;12.30;70.90
13992;DHT22;7070;53.586;9.692;2023-05-20T05:11:23;12.30;71.60
13992;DHT22;7070;53.586;9.692;2023-05-20T05:13:50;12.40;71.00
13992;DHT22;7070;53.586;9.692;2023-05-20T05:16:17;12.50;71.00
13992;DHT22;7070;53.586;9.692;2023-05-20T05:18:44;12.50;71.10
13992;DHT22;7070;53.586;9.692;2023-05-20T05:21:11;12.60;71.10
13992;DHT22;7070;53.586;9.692;2023-05-20T05:23:39;12.80;71.20
13992;DHT22;7070;53.586;9.692;2023-05-20T05:26:07;13.00;71.10
13992;DHT22;7070;53.586;9.692;2023-05-20T05:28:34;13.00;71.10
13992;DHT22;7070;53.586;9.692;2023-05-20T05:31:01;13.20;71.10
13992;DHT22;7070;53.586;9.692;2023-05-20T05:33:28;13.30;71.60
13992;DHT22;7070;53.586;9.692;2023-05-20T05:35:55;13.50;71.50
13992;DHT22;7070;53.586;9.692;2023-05-20T05:38:23;13.70;70.70
13992;DHT22;7070;53.586;9.692;2023-05-20T05:40:52;13.80;70.50
13992;DHT22;7070;53.586;9.692;2023-05-20T05:43:19;14.00;70.20
13992;DHT22;7070;53.586;9.692;2023-05-20T05:45:46;14.10;70.10
13992;DHT22;7070;53.586;9.692;2023-05-20T05:48:12;14.10;69.80
13992;DHT22;7070;53.586;9.692;2023-05-20T05:50:43;14.30;69.70
13992;DHT22;7070;53.586;9.692;2023-05-20T05:53:10;14.30;70.10
13992;DHT22;7070;53.586;9.692;2023-05-20T05:55:37;14.40;69.30
13992;DHT22;7070;53.586;9.692;2023-05-20T05:58:06;14.60;69.20
13992;DHT22;7070;53.586;9.692;2023-05-20T06:00:32;14.60;68.90
13992;DHT22;7070;53.586;9.692;2023-05-20T06:02:59;14.70;68.90
13992;DHT22;7070;53.586;9.692;2023-05-20T06:05:26;14.80;69.10
13992;DHT22;7070;53.586;9.692;2023-05-20T06:07:53;14.90;69.10
13992;DHT22;7070;53.586;9.692;2023-05-20T06:10:20;15.00;69.00
13992;DHT22;7070;53.586;9.692;2023-05-20T06:12:46;15.20;68.90
13992;DHT22;7070;53.586;9.692;2023-05-20T06:15:15;15.30;68.50
13992;DHT22;7070;53.586;9.692;2023-05-20T06:17:42;15.40;68.30
13992;DHT22;7070;53.586;9.692;2023-05-20T06:20:09;15.50;68.30
13992;DHT22;7070;53.586;9.692;2023-05-20T06:22:36;15.50;68.00
13992;DHT22;7070;53.586;9.692;2023-05-20T06:25:03;15.50;67.70
13992;DHT22;7070;53.586;9.692;2023-05-20T06:27:30;15.60;67.60
13992;DHT22;7070;53.586;9.692;2023-05-20T06:29:57;15.70;67.40
13992;DHT22;7070;53.586;9.692;2023-05-20T06:32:26;15.80;67.50
13992;DHT22;7070;53.586;9.692;2023-05-20T06:34:53;15.90;67.60
13992;DHT22;7070;53.586;9.692;2023-05-20T06:37:20;15.90;67.20
13992;DHT22;7070;53.586;9.692;2023-05-20T06:39:48;16.00;67.10
13992;DHT22;7070;53.586;9.692;2023-05-20T06:42:18;16.00;67.00
13992;DHT22;7070;53.586;9.692;2023-05-20T06:44:45;16.10;66.70
13992;DHT22;7070;53.586;9.692;2023-05-20T06:47:13;16.00;66.60
13992;DHT22;7070;53.586;9.692;2023-05-20T06:49:42;16.10;66.70
13992;DHT22;7070;53.586;9.692;2023-05-20T06:52:09;16.20;66.70
13992;DHT22;7070;53.586;9.692;2023-05-20T06:54:37;16.20;66.80
13992;DHT22;7070;53.586;9.692;2023-05-20T06:57:06;16.20;66.50
13992;DHT22;7070;53.586;9.692;2023-05-20T06:59:33;16.20;66.40
13992;DHT22;7070;53.586;9.692;2023-05-20T07:02:00;16.30;66.30
13992;DHT22;7070;53.586;9.692;2023-05-20T07:04:26;16.30;66.20
13992;DHT22;7070;53.586;9.692;2023-05-20T07:06:55;16.30;66.80
13992;DHT22;7070;53.586;9.692;2023-05-20T07:09:22;16.20;65.80
13992;DHT22;7070;53.586;9.692;2023-05-20T07:11:48;16.20;66.00
13992;DHT22;7070;53.586;9.692;2023-05-20T07:14:15;16.20;66.00
13992;DHT22;7070;53.586;9.692;2023-05-20T07:16:42;16.20;65.80
13992;DHT22;7070;53.586;9.692;2023-05-20T07:19:09;16.10;65.80
13992;DHT22;7070;53.586;9.692;2023-05-20T07:21:36;16.10;65.90
13992;DHT22;7070;53.586;9.692;2023-05-20T07:24:04;16.20;65.80
13992;DHT22;7070;53.586;9.692;2023-05-20T07:26:31;16.20;65.80
13992;DHT22;7070;53.586;9.692;2023-05-20T07:29:01;16.20;65.90
13992;DHT22;7070;53.586;9.692;2023-05-20T07:31:28;16.20;65.90
13992;DHT22;7070;53.586;9.692;2023-05-20T07:33:55;16.30;65.90
13992;DHT22;7070;53.586;9.692;2023-05-20T07:36:22;16.30;65.70
13992;DHT22;7070;53.586;9.692;2023-05-20T07:38:49;16.40;65.70
13992;DHT22;7070;53.586;9.692;2023-05-20T07:41:17;16.50;65.60
13992;DHT22;7070;53.586;9.692;2023-05-20T07:43:45;16.50;65.80
13992;DHT22;7070;53.586;9.692;2023-05-20T07:46:12;16.60;65.80
13992;DHT22;7070;53.586;9.692;2023-05-20T07:48:39;16.70;65.80
13992;DHT22;7070;53.586;9.692;2023-05-20T07:51:05;16.70;65.50
13992;DHT22;7070;53.586;9.692;2023-05-20T07:53:32;16.80;65.30
13992;DHT22;7070;53.586;9.692;2023-05-20T07:55:59;16.90;65.50
13992;DHT22;7070;53.586;9.692;2023-05-20T07:58:28;17.00;65.30
13992;DHT22;7070;53.586;9.692;2023-05-20T08:00:56;17.00;65.40
13992;DHT22;7070;53.586;9.692;2023-05-20T08:03:23;17.10;65.30
13992;DHT22;7070;53.586;9.692;2023-05-20T08:05:52;17.20;65.20
13992;DHT22;7070;53.586;9.692;2023-05-20T08:08:19;17.30;65.10
13992;DHT22;7070;53.586;9.692;2023-05-20T08:10:46;17.40;64.80
13992;DHT22;7070;53.586;9.692;2023-05-20T08:13:12;17.40;64.80
13992;DHT22;7070;53.586;9.692;2023-05-20T08:15:41;17.50;64.70
13992;DHT22;7070;53.586;9.692;2023-05-20T08:18:07;17.50;64.60
13992;DHT22;7070;53.586;9.692;2023-05-20T08:20:34;17.50;64.40
13992;DHT22;7070;53.586;9.692;2023-05-20T08:23:01;17.70;64.30
13992;DHT22;7070;53.586;9.692;2023-05-20T08:25:28;17.70;63.80
13992;DHT22;7070;53.586;9.692;2023-05-20T08:27:55;17.70;63.50
13992;DHT22;7070;53.586;9.692;2023-05-20T08:30:22;17.80;63.40
13992;DHT22;7070;53.586;9.692;2023-05-20T08:32:50;17.80;63.40
13992;DHT22;7070;53.586;9.692;2023-05-20T08:35:17;17.80;63.40
13992;DHT22;7070;53.586;9.692;2023-05-20T08:37:44;17.80;63.20
13992;DHT22;7070;53.586;9.692;2023-05-20T08:40:12;17.80;63.10
13992;DHT22;7070;53.586;9.692;2023-05-20T08:42:42;17.90;63.30
13992;DHT22;7070;53.586;9.692;2023-05-20T08:45:10;17.90;63.00
13992;DHT22;7070;53.586;9.692;2023-05-20T08:47:40;17.90;62.90
13992;DHT22;7070;53.586;9.692;2023-05-20T08:50:10;18.00;62.60
13992;DHT22;7070;53.586;9.692;2023-05-20T08:52:42;18.00;62.70
13992;DHT22;7070;53.586;9.692;2023-05-20T08:55:14;18.10;62.90
13992;DHT22;7070;53.586;9.692;2023-05-20T08:57:42;18.20;62.70
13992;DHT22;7070;53.586;9.692;2023-05-20T09:00:12;18.30;62.80
13992;DHT22;7070;53.586;9.692;2023-05-20T09:02:40;18.30;62.90
13992;DHT22;7070;53.586;9.692;2023-05-20T09:05:10;18.50;62.70
13992;DHT22;7070;53.586;9.692;2023-05-20T09:07:37;18.60;62.30
13992;DHT22;7070;53.586;9.692;2023-05-20T09:10:05;18.70;61.80
13992;DHT22;7070;53.586;9.692;2023-05-20T09:12:33;18.70;61.60
13992;DHT22;7070;53.586;9.692;2023-05-20T09:14:59;18.80;61.40
13992;DHT22;7070;53.586;9.692;2023-05-20T09:17:26;19.00;61.30
13992;DHT22;7070;53.586;9.692;2023-05-20T09:19:53;19.00;61.10
13992;DHT22;7070;53.586;9.692;2023-05-20T09:22:26;19.00;60.90
13992;DHT22;7070;53.586;9.692;2023-05-20T09:24:54;19.10;61.00
13992;DHT22;7070;53.586;9.692;2023-05-20T09:27:21;19.20;60.70
13992;DHT22;7070;53.586;9.692;2023-05-20T09:29:48;19.40;60.10
13992;DHT22;7070;53.586;9.692;2023-05-20T09:32:16;19.50;59.90
13992;DHT22;7070;53.586;9.692;2023-05-20T09:34:45;19.70;59.50
13992;DHT22;7070;53.586;9.692;2023-05-20T09:37:13;19.80;59.70
13992;DHT22;7070;53.586;9.692;2023-05-20T09:39:51;19.90;58.20
13992;DHT22;7070;53.586;9.692;2023-05-20T09:42:22;19.90;58.60
13992;DHT22;7070;53.586;9.692;2023-05-20T09:44:51;20.00;58.30
13992;DHT22;7070;53.586;9.692;2023-05-20T09:47:19;20.00;58.10
13992;DHT22;7070;53.586;9.692;2023-05-20T09:49:46;20.00;58.10
13992;DHT22;7070;53.586;9.692;2023-05-20T09:52:14;20.00;57.70
13992;DHT22;7070;53.586;9.692;2023-05-20T09:54:43;19.90;57.60
13992;DHT22;7070;53.586;9.692;2023-05-20T09:57:11;19.90;57.70
13992;DHT22;7070;53.586;9.692;2023-05-20T09:59:40;20.00;58.00
13992;DHT22;7070;53.586;9.692;2023-05-20T10:02:07;20.00;58.30
13992;DHT22;7070;53.586;9.692;2023-05-20T10:04:37;20.00;57.60
13992;DHT22;7070;53.586;9.692;2023-05-20T10:07:23;20.10;57.80
13992;DHT22;7070;53.586;9.692;2023-05-20T10:10:08;20.10;57.80
13992;DHT22;7070;53.586;9.692;2023-05-20T10:12:50;20.20;57.70
13992;DHT22;7070;53.586;9.692;2023-05-20T10:15:25;20.30;57.30
13992;DHT22;7070;53.586;9.692;2023-05-20T10:18:00;20.30;57.30
13992;DHT22;7070;53.586;9.692;2023-05-20T10:20:30;20.40;56.90
13992;DHT22;7070;53.586;9.692;2023-05-20T10:22:57;20.30;56.70
13992;DHT22;7070;53.586;9.692;2023-05-20T10:25:26;20.40;56.70
13992;DHT22;7070;53.586;9.692;2023-05-20T10:28:03;20.40;56.80
13992;DHT22;7070;53.586;9.692;2023-05-20T10:30:32;20.30;56.60
13992;DHT22;7070;53.586;9.692;2023-05-20T10:33:04;20.30;56.30
13992;DHT22;7070;53.586;9.692;2023-05-20T10:35:31;20.30;56.90
13992;DHT22;7070;53.586;9.692;2023-05-20T10:38:07;20.30;56.80
13992;DHT22;7070;53.586;9.692;2023-05-20T10:40:36;20.20;56.90
13992;DHT22;7070;53.586;9.692;2023-05-20T10:43:09;20.20;56.50
13992;DHT22;7070;53.586;9.692;2023-05-20T10:45:47;20.30;56.80
13992;DHT22;7070;53.586;9.692;2023-05-20T10:48:19;20.30;56.90
13992;DHT22;7070;53.586;9.692;2023-05-20T10:50:47;20.30;56.60
13992;DHT22;7070;53.586;9.692;2023-05-20T10:53:14;20.40;56.20
13992;DHT22;7070;53.586;9.692;2023-05-20T10:55:48;20.40;56.60
13992;DHT22;7070;53.586;9.692;2023-05-20T10:58:17;20.40;57.40
13992;DHT22;7070;53.586;9.692;2023-05-20T11:00:44;20.50;56.90
13992;DHT22;7070;53.586;9.692;2023-05-20T11:03:13;20.50;56.90
13992;DHT22;7070;53.586;9.692;2023-05-20T11:05:41;20.60;56.70
13992;DHT22;7070;53.586;9.692;2023-05-20T11:08:08;20.70;56.90
13992;DHT22;7070;53.586;9.692;2023-05-20T11:10:36;20.70;57.00
13992;DHT22;7070;53.586;9.692;2023-05-20T11:13:04;20.80;57.00
13992;DHT22;7070;53.586;9.692;2023-05-20T11:15:33;20.80;57.20
13992;DHT22;7070;53.586;9.692;2023-05-20T11:18:02;20.90;57.10
13992;DHT22;7070;53.586;9.692;2023-05-20T11:20:30;21.00;56.40
13992;DHT22;7070;53.586;9.692;2023-05-20T11:23:00;20.90;55.90
13992;DHT22;7070;53.586;9.692;2023-05-20T11:25:27;20.90;55.90
13992;DHT22;7070;53.586;9.692;2023-05-20T11:27:55;20.80;56.30
13992;DHT22;7070;53.586;9.692;2023-05-20T11:30:23;20.70;56.50
13992;DHT22;7070;53.586;9.692;2023-05-20T11:32:57;20.60;57.10
13992;DHT22;7070;53.586;9.692;2023-05-20T11:35:26;20.60;57.70
13992;DHT22;7070;53.586;9.692;2023-05-20T11:37:55;20.60;57.40
13992;DHT22;7070;53.586;9.692;2023-05-20T11:40:24;20.60;57.40
13992;DHT22;7070;53.586;9.692;2023-05-20T11:42:53;20.50;57.50
13992;DHT22;7070;53.586;9.692;2023-05-20T11:45:20;20.50;57.60
13992;DHT22;7070;53.586;9.692;2023-05-20T11:47:59;20.40;57.40
13992;DHT22;7070;53.586;9.692;2023-05-20T11:50:26;20.40;58.10
13992;DHT22;7070;53.586;9.692;2023-05-20T11:52:59;20.40;57.50
13992;DHT22;7070;53.586;9.692;2023-05-20T11:55:26;20.40;57.80
13992;DHT22;7070;53.586;9.692;2023-05-20T11:57:53;20.30;57.50
13992;DHT22;7070;53.586;9.692;2023-05-20T12:00:21;20.30;57.50
13992;DHT22;7070;53.586;9.692;2023-05-20T12:02:48;20.20;57.60
13992;DHT22;7070;53.586;9.692;2023-05-20T12:05:16;20.10;57.70
13992;DHT22;7070;53.586;9.692;2023-05-20T12:07:43;19.90;57.70
13992;DHT22;7070;53.586;9.692;2023-05-20T12:10:10;20.00;57.70
13992;DHT22;7070;53.586;9.692;2023-05-20T12:12:38;19.80;57.90
13992;DHT22;7070;53.586;9.692;2023-05-20T12:15:05;19.80;58.20
13992;DHT22;7070;53.586;9.692;2023-05-20T12:17:44;19.80;58.40
13992;DHT22;7070;53.586;9.692;2023-05-20T12:20:12;19.70;58.80
13992;DHT22;7070;53.586;9.692;2023-05-20T12:22:41;19.80;58.50
13992;DHT22;7070;53.586;9.692;2023-05-20T12:25:10;19.80;58.50
13992;DHT22;7070;53.586;9.692;2023-05-20T12:27:38;19.80;58.70
13992;DHT22;7070;53.586;9.692;2023-05-20T12:30:06;19.80;58.80
13992;DHT22;7070;53.586;9.692;2023-05-20T12:32:34;19.80;58.90
13992;DHT22;7070;53.586;9.692;2023-05-20T12:35:01;19.80;58.80
13992;DHT22;7070;53.586;9.692;2023-05-20T12:37:28;19.70;58.80
13992;DHT22;7070;53.586;9.692;2023-05-20T12:39:56;19.70;58.80
13992;DHT22;7070;53.586;9.692;2023-05-20T12:42:23;19.60;59.10
13992;DHT22;7070;53.586;9.692;2023-05-20T12:44:50;19.60;59.90
13992;DHT22;7070;53.586;9.692;2023-05-20T12:47:17;19.50;59.10
13992;DHT22;7070;53.586;9.692;2023-05-20T12:49:44;19.50;59.30
13992;DHT22;7070;53.586;9.692;2023-05-20T12:52:11;19.40;59.40
13992;DHT22;7070;53.586;9.692;2023-05-20T12:54:38;19.30;59.90
13992;DHT22;7070;53.586;9.692;2023-05-20T12:57:06;19.30;60.30
13992;DHT22;7070;53.586;9.692;2023-05-20T12:59:33;19.40;60.80
13992;DHT22;7070;53.586;9.692;2023-05-20T13:02:00;19.50;60.20
13992;DHT22;7070;53.586;9.692;2023-05-20T13:04:27;19.60;60.10
13992;DHT22;7070;53.586;9.692;2023-05-20T13:06:54;19.70;59.90
13992;DHT22;7070;53.586;9.692;2023-05-20T13:09:21;19.60;59.60
13992;DHT22;7070;53.586;9.692;2023-05-20T13:11:48;19.60;59.70
13992;DHT22;7070;53.586;9.692;2023-05-20T13:14:16;19.60;59.90
13992;DHT22;7070;53.586;9.692;2023-05-20T13:16:43;19.50;60.00
13992;DHT22;7070;53.586;9.692;2023-05-20T13:19:10;19.60;59.90
13992;DHT22;7070;53.586;9.692;2023-05-20T13:21:36;19.50;59.90
13992;DHT22;7070;53.586;9.692;2023-05-20T13:24:04;19.50;60.20
13992;DHT22;7070;53.586;9.692;2023-05-20T13:26:30;19.60;60.50
13992;DHT22;7070;53.586;9.692;2023-05-20T13:28:57;19.70;60.50
13992;DHT22;7070;53.586;9.692;2023-05-20T13:31:25;19.70;60.20
13992;DHT22;7070;53.586;9.692;2023-05-20T13:33:52;19.80;60.40
13992;DHT22;7070;53.586;9.692;2023-05-20T13:36:20;19.90;60.10
13992;DHT22;7070;53.586;9.692;2023-05-20T13:38:46;19.90;60.00
13992;DHT22;7070;53.586;9.692;2023-05-20T13:41:13;19.90;59.90
13992;DHT22;7070;53.586;9.692;2023-05-20T13:43:40;19.90;59.70
13992;DHT22;7070;53.586;9.692;2023-05-20T13:46:07;19.90;59.70
13992;DHT22;7070;53.586;9.692;2023-05-20T13:48:35;19.90;59.50
13992;DHT22;7070;53.586;9.692;2023-05-20T13:51:03;19.90;59.90
13992;DHT22;7070;53.586;9.692;2023-05-20T13:53:30;19.90;60.00
13992;DHT22;7070;53.586;9.692;2023-05-20T13:55:57;19.90;60.20
13992;DHT22;7070;53.586;9.692;2023-05-20T13:58:24;20.00;60.00
13992;DHT22;7070;53.586;9.692;2023-05-20T14:00:51;20.00;60.00
13992;DHT22;7070;53.586;9.692;2023-05-20T14:03:18;20.10;60.20
13992;DHT22;7070;53.586;9.692;2023-05-20T14:05:46;20.20;60.20
13992;DHT22;7070;53.586;9.692;2023-05-20T14:08:13;20.20;60.00
13992;DHT22;7070;53.586;9.692;2023-05-20T14:10:40;20.20;59.80
13992;DHT22;7070;53.586;9.692;2023-05-20T14:13:07;20.20;60.00
13992;DHT22;7070;53.586;9.692;2023-05-20T14:15:35;20.20;60.40
13992;DHT22;7070;53.586;9.692;2023-05-20T14:18:02;20.20;60.70
13992;DHT22;7070;53.586;9.692;2023-05-20T14:20:29;20.20;60.70
13992;DHT22;7070;53.586;9.692;2023-05-20T14:22:57;20.30;60.50
13992;DHT22;7070;53.586;9.692;2023-05-20T14:25:26;20.30;60.40
13992;DHT22;7070;53.586;9.692;2023-05-20T14:27:53;20.30;60.10
13992;DHT22;7070;53.586;9.692;2023-05-20T14:30:20;20.30;60.00
13992;DHT22;7070;53.586;9.692;2023-05-20T14:32:47;20.30;59.90
13992;DHT22;7070;53.586;9.692;2023-05-20T14:35:14;20.20;59.70
13992;DHT22;7070;53.586;9.692;2023-05-20T14:37:41;20.10;59.60
13992;DHT22;7070;53.586;9.692;2023-05-20T14:40:10;20.00;59.70
13992;DHT22;7070;53.586;9.692;2023-05-20T14:42:37;20.00;60.20
13992;DHT22;7070;53.586;9.692;2023-05-20T14:45:04;20.00;60.10
13992;DHT22;7070;53.586;9.692;2023-05-20T14:47:31;20.00;60.20
13992;DHT22;7070;53.586;9.692;2023-05-20T14:49:58;20.00;60.40
13992;DHT22;7070;53.586;9.692;2023-05-20T14:52:25;20.00;60.20
13992;DHT22;7070;53.586;9.692;2023-05-20T14:54:52;20.10;60.20
13992;DHT22;7070;53.586;9.692;2023-05-20T14:57:22;20.00;59.90
13992;DHT22;7070;53.586;9.692;2023-05-20T14:59:49;20.10;59.90
13992;DHT22;7070;53.586;9.692;2023-05-20T15:02:17;20.00;60.00
13992;DHT22;7070;53.586;9.692;2023-05-20T15:04:44;19.90;60.00
13992;DHT22;7070;53.586;9.692;2023-05-20T15:07:13;19.90;60.10
13992;DHT22;7070;53.586;9.692;2023-05-20T15:09:40;19.90;60.20
13992;DHT22;7070;53.586;9.692;2023-05-20T15:12:08;19.80;60.20
13992;DHT22;7070;53.586;9.692;2023-05-20T15:14:36;19.80;60.40
13992;DHT22;7070;53.586;9.692;2023-05-20T15:17:03;19.80;60.70
13992;DHT22;7070;53.586;9.692;2023-05-20T15:19:31;19.70;60.70
13992;DHT22;7070;53.586;9.692;2023-05-20T15:21:57;19.70;60.70
13992;DHT22;7070;53.586;9.692;2023-05-20T15:24:24;19.70;60.90
13992;DHT22;7070;53.586;9.692;2023-05-20T15:26:51;19.70;61.10
13992;DHT22;7070;53.586;9.692;2023-05-20T15:29:18;19.60;61.20
13992;DHT22;7070;53.586;9.692;2023-05-20T15:31:46;19.70;61.50
13992;DHT22;7070;53.586;9.692;2023-05-20T15:34:13;19.70;61.80
13992;DHT22;7070;53.586;9.692;2023-05-20T15:36:40;19.70;61.40
13992;DHT22;7070;53.586;9.692;2023-05-20T15:39:07;19.80;62.20
13992;DHT22;7070;53.586;9.692;2023-05-20T15:41:34;19.70;61.10
13992;DHT22;7070;53.586;9.692;2023-05-20T15:44:02;19.70;61.10
13992;DHT22;7070;53.586;9.692;2023-05-20T15:46:29;19.70;61.20
13992;DHT22;7070;53.586;9.692;2023-05-20T15:49:10;19.70;61.10
13992;DHT22;7070;53.586;9.692;2023-05-20T15:51:37;19.70;62.10